Time;durP1;ratioP1;P1;durP2;ratioP2;P2;SDS_P1;SDS_P2;PMS_P1;PMS_P2;Temp;Humidity;BMP_temperature;BMP_pressure;BME280_temperature;BME280_humidity;BME280_pressure;Samples;Min_cycle;Max_cycle;Signal;HPM_P1;HPM_P2
2022/02/23 00:01:39;;;;;;;1.70;1.60;;;2.40;99.90;2.40;97032.00;;;;5115116;27;20799;-84
2022/02/23 00:04:27;;;;;;;2.93;1.83;;;2.30;99.90;2.70;97032.00;;;;5116993;27;20839;-84
2022/02/23 00:07:16;;;;;;;1.30;1.20;;;2.20;99.90;3.00;97021.00;;;;5110852;28;20459;-83
2022/02/23 00:10:06;;;;;;;2.00;1.67;;;2.20;99.90;2.90;97010.00;;;;5116239;27;21008;-83
2022/02/23 00:12:55;;;;;;;3.93;2.00;;;2.20;99.90;2.90;97017.00;;;;5087158;28;20437;-82
2022/02/23 00:15:44;;;;;;;1.60;1.20;;;2.20;99.90;3.00;97020.00;;;;5090715;28;20445;-83
2022/02/23 00:18:34;;;;;;;1.23;1.13;;;2.20;99.90;2.80;97007.00;;;;5091587;28;20418;-83
2022/02/23 00:21:23;;;;;;;1.53;1.27;;;2.20;99.90;2.40;97004.00;;;;5111399;28;20419;-83
2022/02/23 00:24:11;;;;;;;3.90;1.40;;;2.10;99.90;2.40;96985.00;;;;5119315;27;20814;-83
2022/02/23 00:27:00;;;;;;;1.83;1.10;;;2.00;99.90;2.70;96981.00;;;;5123626;27;20432;-82
2022/02/23 00:29:49;;;;;;;4.67;2.43;;;2.00;99.90;2.80;96990.00;;;;5126716;27;20471;-83
2022/02/23 00:32:38;;;;;;;1.33;1.23;;;2.00;99.90;2.70;96985.00;;;;5128825;28;20420;-82
2022/02/23 00:35:28;;;;;;;3.20;1.40;;;2.00;99.90;2.60;96968.00;;;;5129026;28;20460;-83
2022/02/23 00:38:17;;;;;;;3.83;1.67;;;1.90;99.90;2.20;96968.00;;;;5109810;28;20421;-83
2022/02/23 00:41:08;;;;;;;4.40;1.53;;;1.90;99.90;2.00;96969.00;;;;5108754;28;20842;-82
2022/02/23 00:43:57;;;;;;;2.07;1.53;;;1.70;99.90;1.80;96964.00;;;;5108734;28;20427;-84
2022/02/23 00:46:46;;;;;;;2.90;1.47;;;1.60;99.90;2.10;96972.00;;;;5110072;28;20432;-82
2022/02/23 00:49:35;;;;;;;2.00;1.20;;;1.60;99.90;2.30;96966.00;;;;5109418;28;21014;-82
2022/02/23 00:52:26;;;;;;;2.07;1.43;;;1.60;99.90;2.30;96965.00;;;;5112439;28;20975;-82
2022/02/23 00:55:14;;;;;;;3.70;1.23;;;1.60;99.90;1.90;96955.00;;;;5125492;28;20435;-82
2022/02/23 00:58:03;;;;;;;2.10;1.20;;;1.50;99.90;2.00;96967.00;;;;5101300;28;20434;-82
2022/02/23 01:00:52;;;;;;;2.23;1.20;;;1.50;99.90;1.90;96955.00;;;;5095354;28;20420;-82
2022/02/23 01:03:41;;;;;;;4.33;1.47;;;1.40;99.90;2.10;96960.00;;;;5117316;28;20401;-82
2022/02/23 01:06:30;;;;;;;2.50;1.87;;;1.40;99.90;2.20;96954.00;;;;5095331;28;20605;-84
2022/02/23 01:09:20;;;;;;;2.63;1.30;;;1.40;99.90;2.00;96950.00;;;;5105280;28;20468;-84
2022/02/23 01:12:09;;;;;;;2.07;1.20;;;1.40;99.90;1.80;96946.00;;;;5129744;28;20415;-83
2022/02/23 01:14:59;;;;;;;1.77;1.40;;;1.40;99.90;1.80;96945.00;;;;5128280;28;20968;-84
2022/02/23 01:17:48;;;;;;;1.03;0.83;;;1.30;99.90;1.20;96953.00;;;;5128726;28;20416;-84
2022/02/23 01:20:36;;;;;;;1.27;0.90;;;1.20;99.90;0.80;96949.00;;;;5128847;28;20802;-84
2022/02/23 01:23:25;;;;;;;2.67;1.70;;;1.10;99.90;1.40;96931.00;;;;5107237;28;20466;-84
2022/02/23 01:26:16;;;;;;;1.17;1.13;;;1.00;99.90;1.80;96940.00;;;;5110127;28;20448;-83
2022/02/23 01:29:05;;;;;;;0.73;0.73;;;0.90;99.90;1.50;96934.00;;;;5120101;28;20439;-83
2022/02/23 01:31:54;;;;;;;1.17;1.07;;;0.90;99.90;1.50;96939.00;;;;5108894;28;20428;-82
2022/02/23 01:34:43;;;;;;;1.83;1.10;;;1.00;99.90;1.60;96952.00;;;;5107729;28;20433;-84
2022/02/23 01:37:31;;;;;;;2.03;1.13;;;1.20;99.90;1.60;96946.00;;;;5124742;27;20424;-84
2022/02/23 01:40:21;;;;;;;0.97;0.90;;;1.10;99.90;1.80;96928.00;;;;5132724;27;20472;-84
2022/02/23 01:43:12;;;;;;;2.00;1.90;;;1.10;99.90;1.90;96932.00;;;;5130756;27;20415;-84
2022/02/23 01:46:01;;;;;;;1.73;1.20;;;1.10;99.90;1.80;96938.00;;;;5133168;27;20436;-83
2022/02/23 01:48:49;;;;;;;1.73;1.13;;;1.10;99.90;1.80;96936.00;;;;5132721;27;20420;-83
2022/02/23 01:51:38;;;;;;;2.63;1.10;;;1.10;99.90;1.90;96934.00;;;;5131018;27;20416;-84
2022/02/23 01:54:28;;;;;;;5.50;1.63;;;0.70;99.90;1.60;96941.00;;;;5130870;27;20933;-84
2022/02/23 01:57:17;;;;;;;1.43;1.20;;;1.10;99.90;2.00;96936.00;;;;5131699;27;20439;-83
2022/02/23 02:00:11;;;;;;;2.03;1.07;;;1.10;99.90;1.60;96922.00;;;;5132168;27;20424;-83
2022/02/23 02:03:00;;;;;;;1.30;1.00;;;1.10;99.90;1.50;96919.00;;;;5111361;28;20812;-83
2022/02/23 02:05:49;;;;;;;2.03;1.40;;;1.10;99.90;1.90;96924.00;;;;5111771;28;20455;-83
2022/02/23 02:08:38;;;;;;;0.70;0.70;;;1.10;99.90;2.10;96929.00;;;;5120842;27;20424;-83
2022/02/23 02:11:26;;;;;;;3.53;1.10;;;1.20;99.90;2.00;96921.00;;;;5132082;27;20466;-82
2022/02/23 02:14:15;;;;;;;1.00;0.90;;;1.30;99.90;2.10;96925.00;;;;5146172;27;20420;-83
2022/02/23 02:17:06;;;;;;;3.30;1.57;;;1.30;99.90;2.10;96913.00;;;;5135221;27;20443;-83
2022/02/23 02:19:55;;;;;;;2.20;1.00;;;1.40;99.90;1.80;96909.00;;;;5132517;27;20956;-84
2022/02/23 02:22:45;;;;;;;2.10;1.10;;;1.40;99.90;1.90;96908.00;;;;5130675;27;20431;-84
2022/02/23 02:25:36;;;;;;;2.13;0.70;;;1.40;99.90;1.90;96908.00;;;;5146747;27;20440;-83
2022/02/23 02:28:25;;;;;;;1.00;0.93;;;1.30;99.90;1.40;96894.00;;;;5137444;27;20432;-82
2022/02/23 02:31:14;;;;;;;2.70;1.30;;;1.30;99.90;1.30;96904.00;;;;5131769;27;20671;-82
2022/02/23 02:34:03;;;;;;;0.50;0.50;;;1.20;99.90;1.60;96904.00;;;;5131652;27;20422;-82
2022/02/23 02:36:52;;;;;;;1.03;0.93;;;1.20;99.90;1.90;96911.00;;;;5120896;27;20776;-84
2022/02/23 02:39:42;;;;;;;1.27;1.27;;;1.20;99.90;1.90;96921.00;;;;5112280;28;20417;-84
2022/02/23 02:42:31;;;;;;;1.37;1.27;;;1.30;99.90;2.00;96922.00;;;;5115076;28;20960;-83
2022/02/23 02:45:21;;;;;;;1.57;1.47;;;1.30;99.90;2.20;96907.00;;;;5114379;28;20449;-84
2022/02/23 02:48:10;;;;;;;1.50;1.40;;;1.40;99.90;2.20;96908.00;;;;5117331;28;20435;-84
2022/02/23 02:50:59;;;;;;;1.93;0.90;;;1.50;99.90;1.90;96908.00;;;;5114000;28;20479;-83
2022/02/23 02:53:47;;;;;;;1.00;0.93;;;1.40;99.90;2.00;96901.00;;;;5121178;28;20429;-84
2022/02/23 02:56:40;;;;;;;1.73;1.40;;;1.40;99.90;1.80;96906.00;;;;5121254;28;20444;-83
2022/02/23 02:59:29;;;;;;;1.17;1.10;;;1.40;99.90;2.00;96906.00;;;;5102627;28;20429;-84
2022/02/23 03:02:18;;;;;;;1.77;1.40;;;1.20;99.90;2.00;96906.00;;;;5089479;28;20797;-83
2022/02/23 03:05:08;;;;;;;1.50;1.40;;;1.30;99.90;1.90;96900.00;;;;5090466;28;20446;-83
2022/02/23 03:07:56;;;;;;;1.37;1.20;;;1.30;99.90;2.10;96909.00;;;;5091302;28;20426;-83
2022/02/23 03:10:45;;;;;;;1.37;1.27;;;1.30;99.90;2.30;96915.00;;;;5089162;28;20466;-82
2022/02/23 03:13:36;;;;;;;4.80;1.43;;;1.40;99.90;2.40;96914.00;;;;5088439;28;20436;-82
2022/02/23 03:16:25;;;;;;;3.00;1.47;;;1.40;99.90;2.20;96926.00;;;;5092737;28;21008;-82
2022/02/23 03:19:14;;;;;;;2.83;1.17;;;1.50;99.90;2.30;96926.00;;;;5090990;28;20417;-82
2022/02/23 03:22:03;;;;;;;3.80;1.30;;;1.50;99.90;2.30;96912.00;;;;5090887;28;20424;-83
2022/02/23 03:24:52;;;;;;;1.80;0.90;;;1.50;99.90;2.40;96927.00;;;;5091476;28;20468;-84
2022/02/23 03:27:41;;;;;;;1.80;0.90;;;1.50;99.90;2.20;96930.00;;;;5091491;28;20429;-83
2022/02/23 03:30:31;;;;;;;2.60;1.30;;;1.50;99.90;1.90;96925.00;;;;5087235;28;20462;-82
2022/02/23 03:33:20;;;;;;;2.80;1.37;;;1.50;99.90;2.10;96941.00;;;;5069562;28;20427;-82
2022/02/23 03:36:11;;;;;;;1.83;1.10;;;1.50;99.90;2.40;96957.00;;;;5081958;28;20462;-83
2022/02/23 03:39:00;;;;;;;1.93;1.20;;;1.50;99.90;2.50;96951.00;;;;5110520;28;20526;-83
2022/02/23 03:41:49;;;;;;;1.40;1.27;;;1.50;99.90;2.40;96957.00;;;;5109198;28;20945;-82
2022/02/23 03:44:38;;;;;;;2.80;1.80;;;1.60;99.90;2.40;96949.00;;;;5109700;28;20432;-82
2022/02/23 03:47:28;;;;;;;1.97;1.33;;;1.60;99.90;2.50;96958.00;;;;5110445;28;20420;-83
2022/02/23 03:50:17;;;;;;;1.83;1.37;;;1.70;99.90;2.20;96954.00;;;;5110618;28;20417;-82
2022/02/23 03:53:06;;;;;;;1.30;1.30;;;1.70;99.90;2.20;96953.00;;;;5105307;28;20424;-82
2022/02/23 03:55:54;;;;;;;3.23;1.50;;;1.60;99.90;2.50;96951.00;;;;5110286;28;20440;-83
2022/02/23 03:58:43;;;;;;;1.97;1.10;;;1.70;99.90;2.40;96948.00;;;;5122728;27;20439;-84
2022/02/23 04:01:32;;;;;;;3.23;1.73;;;1.70;99.90;2.00;96938.00;;;;5118536;27;20429;-83
2022/02/23 04:04:22;;;;;;;1.77;1.30;;;1.60;99.90;2.40;96944.00;;;;5109998;28;20420;-83
2022/02/23 04:07:11;;;;;;;2.80;1.50;;;1.60;99.90;2.40;96939.00;;;;5109796;28;20428;-83
2022/02/23 04:10:00;;;;;;;2.70;1.20;;;1.70;99.90;1.70;96945.00;;;;5089900;28;20422;-83
2022/02/23 04:12:49;;;;;;;1.33;1.10;;;1.60;99.90;1.60;96943.00;;;;5089306;28;20430;-83
2022/02/23 04:15:38;;;;;;;2.47;1.27;;;1.50;99.90;1.50;96937.00;;;;5090603;28;20445;-82
2022/02/23 04:18:27;;;;;;;1.23;1.00;;;1.40;99.90;1.60;96949.00;;;;5090129;28;20432;-83
2022/02/23 04:21:17;;;;;;;1.70;1.07;;;1.40;99.90;2.00;96949.00;;;;5090145;28;20459;-82
2022/02/23 04:24:08;;;;;;;1.93;1.70;;;1.30;99.90;2.10;96962.00;;;;5126866;27;20427;-82
2022/02/23 04:26:57;;;;;;;1.50;1.40;;;1.40;99.90;1.70;96958.00;;;;5130069;27;20428;-83
2022/02/23 04:29:46;;;;;;;1.07;1.07;;;1.30;99.90;1.60;96939.00;;;;5094759;28;20495;-83
2022/02/23 04:32:36;;;;;;;1.93;1.20;;;1.30;99.90;1.90;96946.00;;;;5090193;28;20476;-83
2022/02/23 04:35:24;;;;;;;2.70;1.40;;;1.30;99.90;2.00;96944.00;;;;5090509;28;21008;-82
2022/02/23 04:38:15;;;;;;;1.53;1.37;;;1.40;99.90;2.10;96947.00;;;;5090492;28;20421;-83
2022/02/23 04:41:03;;;;;;;2.70;1.27;;;1.40;99.90;2.00;96950.00;;;;5088955;28;20410;-83
2022/02/23 04:43:52;;;;;;;1.53;1.43;;;1.40;99.90;1.80;96945.00;;;;5087601;28;20433;-83
2022/02/23 04:46:41;;;;;;;3.00;1.37;;;1.50;99.90;2.00;96959.00;;;;5089852;28;20441;-83
2022/02/23 04:49:30;;;;;;;1.20;1.20;;;1.50;99.90;2.30;96959.00;;;;5088891;28;20429;-82
2022/02/23 04:52:19;;;;;;;2.43;1.30;;;1.50;99.90;2.50;96967.00;;;;5088653;28;20548;-82
2022/02/23 04:55:10;;;;;;;1.80;1.13;;;1.60;99.90;2.70;96977.00;;;;5090153;28;20982;-82
2022/02/23 04:57:59;;;;;;;0.60;0.60;;;1.60;99.90;2.70;96977.00;;;;5089812;28;20444;-83
2022/02/23 05:00:48;;;;;;;2.00;1.20;;;1.60;99.90;2.20;96970.00;;;;5098668;28;20420;-82
2022/02/23 05:03:37;;;;;;;1.77;1.57;;;1.80;99.90;2.60;96985.00;;;;5128912;28;20436;-83
2022/02/23 05:06:27;;;;;;;1.20;1.10;;;1.80;99.90;2.80;96988.00;;;;5129310;28;20439;-83
2022/02/23 05:09:15;;;;;;;1.30;1.10;;;1.80;99.90;2.70;97001.00;;;;5129614;28;20431;-82
2022/02/23 05:12:07;;;;;;;1.00;1.00;;;1.90;99.90;2.70;96998.00;;;;5129835;27;21011;-82
2022/02/23 05:14:56;;;;;;;1.10;1.00;;;1.90;99.90;2.90;96996.00;;;;5132693;27;20432;-83
2022/02/23 05:17:45;;;;;;;1.40;1.23;;;2.00;99.90;2.70;96990.00;;;;5134878;27;20435;-83
2022/02/23 05:20:34;;;;;;;1.63;1.23;;;2.00;99.90;2.80;96992.00;;;;5134050;27;20415;-83
2022/02/23 05:23:24;;;;;;;3.27;1.37;;;2.00;99.90;2.40;97001.00;;;;5132477;27;20455;-82
2022/02/23 05:26:14;;;;;;;3.27;1.30;;;2.00;99.90;2.40;97013.00;;;;5133353;27;20435;-83
2022/02/23 05:29:04;;;;;;;1.13;1.10;;;2.00;99.90;2.20;97011.00;;;;5117196;27;20433;-83
2022/02/23 05:31:54;;;;;;;1.37;1.27;;;1.90;99.90;2.40;97010.00;;;;5127942;27;20467;-83
2022/02/23 05:34:42;;;;;;;1.20;1.10;;;1.90;99.90;2.80;97021.00;;;;5136694;28;20436;-83
2022/02/23 05:37:31;;;;;;;2.57;1.10;;;1.90;99.90;2.90;97028.00;;;;5126326;27;20436;-82
2022/02/23 05:40:21;;;;;;;1.27;1.17;;;2.00;99.90;2.70;97021.00;;;;5132401;27;21000;-82
2022/02/23 05:43:10;;;;;;;1.13;0.90;;;2.00;99.90;2.60;97023.00;;;;5132104;27;20936;-82
2022/02/23 05:46:00;;;;;;;1.60;1.27;;;2.00;99.90;2.30;97031.00;;;;5126787;27;20440;-83
2022/02/23 05:48:49;;;;;;;1.27;1.03;;;2.00;99.90;2.70;97034.00;;;;5111913;28;20447;-82
2022/02/23 05:51:40;;;;;;;1.83;1.40;;;1.90;99.90;2.90;97033.00;;;;5110696;28;20460;-83
2022/02/23 05:54:30;;;;;;;2.27;2.07;;;2.00;99.90;3.00;97042.00;;;;5112694;28;20952;-84
2022/02/23 05:57:19;;;;;;;1.80;1.70;;;2.00;99.90;3.10;97052.00;;;;5110380;28;20437;-84
2022/02/23 06:00:11;;;;;;;1.53;1.23;;;2.10;99.90;2.60;97044.00;;;;5109856;28;20968;-84
2022/02/23 06:03:01;;;;;;;1.03;1.03;;;2.10;99.90;2.20;97048.00;;;;5113546;27;20815;-84
2022/02/23 06:05:51;;;;;;;1.40;1.30;;;2.10;99.90;2.30;97049.00;;;;5093661;27;20966;-84
2022/02/23 06:08:41;;;;;;;3.63;1.43;;;2.00;99.90;2.80;97069.00;;;;5106598;27;20409;-83
2022/02/23 06:11:29;;;;;;;3.30;1.37;;;2.00;99.90;3.00;97069.00;;;;5107534;28;20413;-84
2022/02/23 06:14:18;;;;;;;1.27;0.80;;;2.10;99.90;3.00;97076.00;;;;5091863;28;20444;-84
2022/02/23 06:17:07;;;;;;;1.10;1.00;;;2.20;99.90;3.10;97078.00;;;;5101561;28;20433;-84
2022/02/23 06:19:57;;;;;;;5.33;1.40;;;2.20;99.90;3.10;97072.00;;;;5105978;28;20451;-83
2022/02/23 06:22:46;;;;;;;1.60;1.50;;;2.30;99.90;3.30;97082.00;;;;5108419;27;20984;-83
2022/02/23 06:25:35;;;;;;;1.67;1.50;;;2.40;99.90;3.30;97095.00;;;;5094336;28;20860;-84
2022/02/23 06:28:23;;;;;;;1.97;1.73;;;2.40;99.90;3.20;97075.00;;;;5088456;27;20444;-83
2022/02/23 06:31:13;;;;;;;2.47;1.70;;;2.40;99.90;3.30;97094.00;;;;5119227;27;20413;-83
2022/02/23 06:34:02;;;;;;;2.43;2.10;;;2.50;99.90;3.10;97096.00;;;;5098939;28;20949;-83
2022/02/23 06:36:52;;;;;;;1.60;1.50;;;2.50;99.90;3.00;97098.00;;;;5110820;28;20428;-83
2022/02/23 06:39:43;;;;;;;1.10;0.90;;;2.50;99.90;3.30;97100.00;;;;5111434;28;20428;-83
2022/02/23 06:42:33;;;;;;;1.30;1.20;;;2.50;99.90;3.60;97120.00;;;;5108172;28;20444;-83
2022/02/23 06:45:22;;;;;;;2.07;1.27;;;2.60;99.90;3.80;97124.00;;;;5109508;28;20448;-83
2022/02/23 06:48:11;;;;;;;4.10;1.27;;;2.70;99.90;3.80;97119.00;;;;5110328;28;20432;-83
2022/02/23 06:51:00;;;;;;;1.93;1.43;;;2.70;99.90;3.50;97124.00;;;;5109732;28;20423;-84
2022/02/23 06:53:51;;;;;;;2.67;2.00;;;2.80;99.90;3.50;97130.00;;;;5108609;28;20456;-83
2022/02/23 06:56:40;;;;;;;4.43;3.10;;;2.80;99.90;3.50;97122.00;;;;5109277;28;20815;-83
2022/02/23 06:59:29;;;;;;;3.07;2.77;;;2.80;99.90;3.70;97132.00;;;;5108883;28;20436;-83
2022/02/23 07:02:18;;;;;;;1.77;1.60;;;2.90;99.90;3.90;97145.00;;;;5104982;27;20733;-83
2022/02/23 07:05:08;;;;;;;2.00;1.80;;;2.90;99.90;4.00;97150.00;;;;5109588;27;20840;-84
2022/02/23 07:07:58;;;;;;;1.70;1.60;;;3.00;99.90;3.80;97150.00;;;;5104468;27;20422;-83
2022/02/23 07:10:48;;;;;;;6.07;4.47;;;3.00;99.90;3.40;97158.00;;;;5088963;28;20810;-83
2022/02/23 07:13:37;;;;;;;5.07;2.40;;;3.00;99.90;3.60;97174.00;;;;5088457;28;20472;-84
2022/02/23 07:16:26;;;;;;;4.17;1.30;;;3.00;99.90;3.70;97177.00;;;;5088835;28;20488;-83
2022/02/23 07:19:16;;;;;;;1.37;1.27;;;2.90;99.90;3.90;97188.00;;;;5091359;27;20417;-83
2022/02/23 07:22:05;;;;;;;1.17;1.07;;;3.00;99.90;4.10;97196.00;;;;5099801;27;20949;-83
2022/02/23 07:24:56;;;;;;;3.40;1.27;;;3.10;99.90;3.90;97197.00;;;;5115435;27;20918;-84
2022/02/23 07:27:47;;;;;;;1.40;0.90;;;3.10;99.90;4.00;97202.00;;;;5126381;27;20434;-84
2022/02/23 07:30:37;;;;;;;1.43;0.90;;;3.20;99.90;4.40;97220.00;;;;5092749;28;20451;-84
2022/02/23 07:33:26;;;;;;;3.33;1.90;;;3.20;99.90;4.40;97210.00;;;;5107093;28;20471;-85
2022/02/23 07:36:16;;;;;;;4.20;1.23;;;3.30;99.90;3.90;97213.00;;;;5104305;28;20445;-84
2022/02/23 07:39:07;;;;;;;1.50;1.40;;;3.40;99.90;4.30;97227.00;;;;5100368;28;20436;-84
2022/02/23 07:41:55;;;;;;;1.60;1.47;;;3.40;99.90;4.40;97222.00;;;;5105832;28;20416;-83
2022/02/23 07:45:07;;;;;;;4.77;4.20;;;3.60;99.90;4.30;97229.00;;;;5106797;28;20694;-84
2022/02/23 07:47:56;;;;;;;7.60;3.37;;;3.60;99.90;4.50;97238.00;;;;5089101;28;20425;-84
2022/02/23 07:50:45;;;;;;;1.87;1.77;;;3.70;99.90;4.60;97261.00;;;;5089498;28;20421;-84
2022/02/23 07:53:34;;;;;;;2.37;1.40;;;3.70;99.90;4.40;97274.00;;;;5088136;28;20468;-84
2022/02/23 07:56:23;;;;;;;2.30;1.40;;;3.70;99.90;3.80;97254.00;;;;5089486;28;20453;-82
2022/02/23 07:59:12;;;;;;;1.80;1.53;;;3.70;99.90;4.40;97288.00;;;;5094323;28;20819;-84
2022/02/23 08:02:03;;;;;;;2.43;1.50;;;3.70;99.90;4.90;97295.00;;;;5119007;27;20428;-84
2022/02/23 08:04:52;;;;;;;2.20;1.00;;;3.70;99.90;5.10;97298.00;;;;5112022;27;20445;-83
2022/02/23 08:07:41;;;;;;;3.17;1.97;;;3.80;99.90;4.60;97299.00;;;;5110349;27;21344;-83
2022/02/23 08:10:30;;;;;;;3.17;1.57;;;3.90;99.90;5.00;97305.00;;;;5128195;27;20428;-84
2022/02/23 08:13:19;;;;;;;4.37;1.77;;;4.00;99.90;5.10;97311.00;;;;5126552;27;20841;-84
2022/02/23 08:19:34;;;;;;;2.23;1.80;;;4.10;99.90;4.80;97318.00;;;;5116749;27;20450;-83
2022/02/23 08:22:28;;;;;;;3.13;1.53;;;4.10;99.90;5.40;97322.00;;;;5121971;27;20429;-85
2022/02/23 08:25:17;;;;;;;1.57;1.47;;;4.20;99.90;5.20;97324.00;;;;5107409;28;20445;-84
2022/02/23 08:28:07;;;;;;;1.70;1.60;;;4.30;99.90;5.50;97334.00;;;;5107068;28;20427;-84
2022/02/23 08:30:56;;;;;;;1.47;1.37;;;4.30;99.90;5.20;97324.00;;;;5107284;28;20421;-84
2022/02/23 08:33:46;;;;;;;3.13;1.40;;;4.40;99.90;5.70;97328.00;;;;5107351;28;20456;-84
2022/02/23 08:36:36;;;;;;;4.90;1.33;;;4.50;99.90;6.00;97341.00;;;;5128649;27;20226;-85
2022/02/23 08:39:25;;;;;;;1.40;1.23;;;4.70;99.90;5.70;97331.00;;;;5140025;27;20422;-86
2022/02/23 08:42:17;;;;;;;2.00;1.57;;;4.80;99.90;5.50;97329.00;;;;5130865;28;20209;-84
2022/02/23 08:45:07;;;;;;;5.03;1.57;;;4.90;99.90;5.80;97337.00;;;;5135318;28;20698;-84
2022/02/23 08:47:56;;;;;;;1.43;1.00;;;5.00;99.90;6.10;97359.00;;;;5130857;27;20205;-84
2022/02/23 08:50:45;;;;;;;1.23;1.10;;;5.10;99.90;6.50;97349.00;;;;5132366;27;20202;-85
2022/02/23 08:53:38;;;;;;;1.57;1.10;;;5.30;99.90;6.70;97361.00;;;;5100281;27;20262;-84
2022/02/23 08:56:27;;;;;;;2.07;1.23;;;5.50;99.90;6.00;97365.00;;;;5112855;27;20222;-84
2022/02/23 08:59:17;;;;;;;1.60;1.23;;;5.60;99.90;6.70;97363.00;;;;5110048;28;20594;-84
2022/02/23 09:02:08;;;;;;;2.20;1.33;;;5.70;99.90;6.40;97368.00;;;;5112128;27;20245;-85
2022/02/23 09:04:57;;;;;;;1.80;1.00;;;5.80;99.90;6.90;97380.00;;;;5106240;27;20226;-85
2022/02/23 09:07:46;;;;;;;1.87;1.07;;;5.90;99.90;6.90;97391.00;;;;5113177;27;20197;-84
2022/02/23 09:10:37;;;;;;;1.30;1.20;;;6.00;99.90;7.30;97381.00;;;;5108189;28;20206;-85
2022/02/23 09:13:26;;;;;;;1.10;1.00;;;6.20;99.90;7.50;97378.00;;;;5116789;27;20219;-85
2022/02/23 09:16:15;;;;;;;4.33;1.80;;;6.40;99.90;7.70;97409.00;;;;5130679;27;20214;-84
2022/02/23 09:19:04;;;;;;;2.50;1.73;;;6.50;99.90;8.40;97400.00;;;;5106861;27;20195;-85
2022/02/23 09:21:53;;;;;;;4.47;2.00;;;6.70;99.90;8.90;97405.00;;;;5111575;28;20279;-84
2022/02/23 09:24:43;;;;;;;1.17;1.17;;;7.00;99.90;8.50;97410.00;;;;5107725;28;20237;-84
2022/02/23 09:27:35;;;;;;;2.77;1.40;;;7.30;99.90;8.60;97398.00;;;;5120341;27;20206;-85
2022/02/23 09:30:27;;;;;;;2.17;1.53;;;7.50;99.90;8.70;97410.00;;;;5134912;27;20205;-84
2022/02/23 09:33:16;;;;;;;1.50;1.30;;;7.70;99.90;9.20;97407.00;;;;5131768;27;20675;-85
2022/02/23 09:36:06;;;;;;;1.77;1.00;;;7.80;99.90;9.90;97417.00;;;;5090913;28;20215;-84
2022/02/23 09:38:55;;;;;;;1.10;0.80;;;8.10;99.90;10.20;97410.00;;;;5121014;27;20690;-84
2022/02/23 09:41:45;;;;;;;0.90;0.90;;;8.40;99.90;10.60;97411.00;;;;5092793;28;20200;-84
2022/02/23 09:44:35;;;;;;;3.97;1.87;;;8.70;99.90;11.00;97415.00;;;;5097193;28;20659;-84
2022/02/23 09:47:25;;;;;;;1.30;0.67;;;9.00;99.90;11.10;97418.00;;;;5115540;27;20206;-84
2022/02/23 09:50:20;;;;;;;0.37;0.37;;;9.40;99.90;11.00;97409.00;;;;5111144;28;20667;-84
2022/02/23 09:53:08;;;;;;;0.40;0.40;;;9.70;99.90;11.20;97437.00;;;;5108216;27;20213;-85
2022/02/23 09:55:59;;;;;;;0.40;0.40;;;9.90;98.20;11.80;97423.00;;;;5110542;28;20699;-85
2022/02/23 09:58:50;;;;;;;0.80;0.30;;;10.10;96.30;12.00;97447.00;;;;5092225;28;20722;-85
2022/02/23 10:01:41;;;;;;;0.77;0.40;;;10.40;95.50;12.30;97448.00;;;;5102455;28;20202;-86
2022/02/23 10:04:30;;;;;;;0.80;0.40;;;10.60;94.70;12.40;97444.00;;;;5098680;28;20786;-84
2022/02/23 10:07:30;;;;;;;0.40;0.40;;;10.80;91.10;12.20;97444.00;;;;5091324;28;20210;-85
2022/02/23 10:10:32;;;;;;;0.30;0.30;;;10.90;87.10;12.50;97454.00;;;;5070605;28;20210;-83
2022/02/23 10:13:25;;;;;;;0.60;0.60;;;11.10;86.10;12.60;97464.00;;;;5083213;28;20422;-85
2022/02/23 10:16:14;;;;;;;0.50;0.27;;;11.30;81.00;11.80;97454.00;;;;5081632;28;20230;-83
2022/02/23 10:19:19;;;;;;;0.60;0.60;;;11.30;71.40;11.60;97442.00;;;;5070728;28;20199;-85
2022/02/23 10:22:09;;;;;;;0.30;0.20;;;11.30;67.50;11.40;97462.00;;;;5073420;28;20258;-85
2022/02/23 10:25:00;;;;;;;5.10;0.50;;;11.10;64.80;11.60;97469.00;;;;5110797;28;20222;-85
2022/02/23 10:27:50;;;;;;;0.20;0.20;;;11.10;65.10;12.60;97479.00;;;;5105437;28;20676;-84
2022/02/23 10:30:46;;;;;;;0.73;0.30;;;11.20;66.60;12.90;97473.00;;;;5089680;28;20203;-84
2022/02/23 10:33:38;;;;;;;0.90;0.63;;;11.40;65.70;11.50;97465.00;;;;5086185;28;20206;-85
2022/02/23 10:36:42;;;;;;;0.70;0.50;;;11.40;59.90;12.10;97486.00;;;;5085629;28;20222;-82
2022/02/23 10:39:40;;;;;;;0.30;0.30;;;11.30;60.80;11.70;97470.00;;;;5108558;28;20652;-84
2022/02/23 10:42:33;;;;;;;0.60;0.40;;;11.40;60.30;12.30;97473.00;;;;5108030;28;20210;-83
2022/02/23 10:45:22;;;;;;;0.40;0.30;;;11.40;59.70;12.10;97476.00;;;;5090023;28;20628;-84
2022/02/23 10:48:11;;;;;;;0.30;0.30;;;11.50;59.30;13.10;97480.00;;;;5092888;27;20211;-85
2022/02/23 10:51:01;;;;;;;0.33;0.30;;;11.80;59.10;13.00;97470.00;;;;5089197;28;20195;-84
2022/02/23 10:53:53;;;;;;;1.80;0.30;;;12.20;57.90;13.60;97469.00;;;;5089575;28;20191;-83
2022/02/23 10:56:45;;;;;;;2.40;0.53;;;12.60;57.50;13.50;97476.00;;;;5089702;28;20237;-87
2022/02/23 10:59:34;;;;;;;1.53;0.30;;;12.90;56.80;13.30;97483.00;;;;5075227;28;20204;-83
2022/02/23 11:02:23;;;;;;;0.30;0.30;;;12.90;55.70;13.50;97467.00;;;;5076050;28;20878;-88
2022/02/23 11:05:14;;;;;;;0.30;0.30;;;13.10;55.70;14.10;97468.00;;;;5081747;28;20223;-83
2022/02/23 11:08:04;;;;;;;0.80;0.30;;;13.20;55.40;14.30;97485.00;;;;5090025;28;20331;-88
2022/02/23 11:10:55;;;;;;;0.37;0.37;;;13.40;54.70;15.00;97476.00;;;;5076676;28;20207;-84
2022/02/23 11:13:45;;;;;;;0.73;0.50;;;13.50;55.90;14.00;97447.00;;;;5099736;28;20201;-83
2022/02/23 11:16:34;;;;;;;0.80;0.57;;;13.60;54.00;14.50;97461.00;;;;5092974;28;20221;-87
2022/02/23 11:19:25;;;;;;;1.80;0.30;;;13.80;52.80;15.80;97490.00;;;;5088421;28;20575;-84
2022/02/23 11:22:14;;;;;;;1.10;0.63;;;14.10;53.80;14.50;97467.00;;;;5089169;28;20203;-84
2022/02/23 11:25:04;;;;;;;0.40;0.40;;;14.30;53.20;15.40;97490.00;;;;5078608;28;20263;-87
2022/02/23 11:28:03;;;;;;;0.63;0.30;;;14.40;52.20;16.70;97483.00;;;;5075252;28;20203;-85
2022/02/23 11:30:57;;;;;;;0.50;0.50;;;14.70;52.60;15.10;97468.00;;;;5090583;28;20196;-85
2022/02/23 11:33:58;;;;;;;1.30;0.40;;;15.00;51.50;14.90;97467.00;;;;5078685;28;20233;-85
2022/02/23 11:36:49;;;;;;;0.40;0.40;;;15.00;50.50;16.70;97493.00;;;;5077337;28;20222;-85
2022/02/23 11:39:39;;;;;;;0.93;0.40;;;15.00;51.50;17.90;97486.00;;;;5090081;28;20214;-84
2022/02/23 11:42:28;;;;;;;2.40;0.60;;;15.50;52.40;17.70;97494.00;;;;5082826;28;20197;-86
2022/02/23 11:45:18;;;;;;;1.00;0.57;;;16.00;50.40;15.00;97486.00;;;;5095133;28;20550;-87
2022/02/23 11:48:10;;;;;;;3.10;2.90;;;16.00;47.90;13.20;97477.00;;;;5109196;28;20614;-85
2022/02/23 11:51:04;;;;;;;0.60;0.60;;;15.20;47.60;15.10;97474.00;;;;5096096;28;20583;-85
2022/02/23 11:53:53;;;;;;;0.83;0.57;;;14.90;49.10;17.20;97488.00;;;;5068199;28;20196;-86
2022/02/23 11:56:49;;;;;;;0.43;0.40;;;15.10;51.00;17.60;97490.00;;;;5099617;27;20218;-84
2022/02/23 11:59:46;;;;;;;1.10;0.77;;;15.70;50.30;17.20;97485.00;;;;5111247;28;20202;-83
2022/02/23 12:02:37;;;;;;;0.80;0.50;;;16.00;48.70;18.10;97478.00;;;;5088825;28;20675;-84
2022/02/23 12:05:39;;;;;;;0.30;0.30;;;16.30;49.00;18.50;97482.00;;;;5108210;28;20694;-84
2022/02/23 12:08:47;;;;;;;1.60;0.30;;;16.70;48.30;16.90;97477.00;;;;5098851;28;20195;-84
2022/02/23 12:11:43;;;;;;;1.43;0.50;;;17.20;46.70;17.10;97482.00;;;;5088034;28;20203;-85
2022/02/23 12:14:51;;;;;;;3.13;0.50;;;17.30;46.60;15.70;97461.00;;;;5080670;28;20195;-85
2022/02/23 12:17:55;;;;;;;0.33;0.27;;;16.90;47.00;17.30;97484.00;;;;5088494;28;20199;-84
2022/02/23 12:20:55;;;;;;;0.50;0.30;;;16.50;47.00;19.20;97494.00;;;;5072193;28;20261;-85
2022/02/23 12:23:46;;;;;;;0.40;0.40;;;16.90;48.00;15.50;97454.00;;;;5082823;28;20204;-87
2022/02/23 12:26:37;;;;;;;0.60;0.20;;;17.00;44.80;16.80;97462.00;;;;5081595;28;20699;-85
2022/02/23 12:29:27;;;;;;;1.13;0.20;;;17.00;46.10;17.80;97467.00;;;;5088843;28;20551;-84
2022/02/23 12:32:18;;;;;;;0.40;0.30;;;17.20;46.00;19.00;97489.00;;;;5086383;28;20675;-84
2022/02/23 12:35:09;;;;;;;0.83;0.73;;;17.40;45.90;20.80;97478.00;;;;5088669;28;20209;-84
2022/02/23 12:38:02;;;;;;;0.70;0.40;;;18.00;46.70;19.10;97461.00;;;;5087600;28;20200;-87
2022/02/23 12:40:53;;;;;;;1.30;0.50;;;18.50;43.20;20.70;97471.00;;;;5087012;28;20688;-85
2022/02/23 12:43:57;;;;;;;0.40;0.20;;;19.00;44.10;20.40;97470.00;;;;5087085;28;20192;-84
2022/02/23 12:46:49;;;;;;;0.70;0.33;;;19.30;42.80;20.80;97467.00;;;;5077162;28;20230;-86
2022/02/23 12:49:39;;;;;;;0.30;0.20;;;19.70;42.50;20.70;97474.00;;;;5106195;28;20205;-86
2022/02/23 12:52:29;;;;;;;1.37;0.40;;;20.00;42.10;17.10;97470.00;;;;5092198;28;20199;-85